sensor_id;sensor_type;location;lat;lon;timestamp;temperature;humidity
19088;DHT22;9676;50.916;13.352;2024-02-21T00:02:31;11.10;99.90
19088;DHT22;9676;50.916;13.352;2024-02-21T00:05:21;11.10;99.90
19088;DHT22;9676;50.916;13.352;2024-02-21T00:08:10;11.10;99.90
19088;DHT22;9676;50.916;13.352;2024-02-21T00:11:00;11.00;99.90
19088;DHT22;9676;50.916;13.352;2024-02-21T00:13:50;11.00;99.90
19088;DHT22;9676;50.916;13.352;2024-02-21T00:16:39;11.00;99.90
19088;DHT22;9676;50.916;13.352;2024-02-21T00:19:30;11.00;99.90
19088;DHT22;9676;50.916;13.352;2024-02-21T00:22:19;11.00;99.90
19088;DHT22;9676;50.916;13.352;2024-02-21T00:25:09;11.00;99.90
19088;DHT22;9676;50.916;13.352;2024-02-21T00:27:59;11.00;99.90
19088;DHT22;9676;50.916;13.352;2024-02-21T00:30:48;11.10;99.90
19088;DHT22;9676;50.916;13.352;2024-02-21T00:33:38;11.00;99.90
19088;DHT22;9676;50.916;13.352;2024-02-21T00:36:29;11.00;99.90
19088;DHT22;9676;50.916;13.352;2024-02-21T00:39:19;11.00;99.90
19088;DHT22;9676;50.916;13.352;2024-02-21T00:42:08;11.00;99.90
19088;DHT22;9676;50.916;13.352;2024-02-21T00:44:58;11.00;99.90
19088;DHT22;9676;50.916;13.352;2024-02-21T00:47:47;10.90;99.90
19088;DHT22;9676;50.916;13.352;2024-02-21T00:50:37;10.90;99.90
19088;DHT22;9676;50.916;13.352;2024-02-21T00:53:27;10.90;99.90
19088;DHT22;9676;50.916;13.352;2024-02-21T00:56:17;10.90;99.90
19088;DHT22;9676;50.916;13.352;2024-02-21T00:59:06;10.90;99.90
19088;DHT22;9676;50.916;13.352;2024-02-21T01:01:55;10.80;99.90
19088;DHT22;9676;50.916;13.352;2024-02-21T01:04:45;10.80;99.90
19088;DHT22;9676;50.916;13.352;2024-02-21T01:07:34;10.80;99.90
19088;DHT22;9676;50.916;13.352;2024-02-21T01:10:26;10.80;99.90
19088;DHT22;9676;50.916;13.352;2024-02-21T01:13:16;10.80;99.90
19088;DHT22;9676;50.916;13.352;2024-02-21T01:16:05;10.80;99.90
19088;DHT22;9676;50.916;13.352;2024-02-21T01:18:55;10.80;99.90
19088;DHT22;9676;50.916;13.352;2024-02-21T01:21:45;10.80;99.90
19088;DHT22;9676;50.916;13.352;2024-02-21T01:24:34;10.80;99.90
19088;DHT22;9676;50.916;13.352;2024-02-21T01:27:25;10.80;99.90
19088;DHT22;9676;50.916;13.352;2024-02-21T01:30:15;10.80;99.90
19088;DHT22;9676;50.916;13.352;2024-02-21T01:33:05;10.80;99.90
19088;DHT22;9676;50.916;13.352;2024-02-21T01:35:54;10.70;99.90
19088;DHT22;9676;50.916;13.352;2024-02-21T01:38:44;10.70;99.90
19088;DHT22;9676;50.916;13.352;2024-02-21T01:41:33;10.70;99.90
19088;DHT22;9676;50.916;13.352;2024-02-21T01:44:24;10.60;99.90
19088;DHT22;9676;50.916;13.352;2024-02-21T01:47:14;10.60;99.90
19088;DHT22;9676;50.916;13.352;2024-02-21T01:50:04;10.60;99.90
19088;DHT22;9676;50.916;13.352;2024-02-21T01:52:54;10.60;99.90
19088;DHT22;9676;50.916;13.352;2024-02-21T01:55:44;10.50;99.90
19088;DHT22;9676;50.916;13.352;2024-02-21T01:58:36;10.50;99.90
19088;DHT22;9676;50.916;13.352;2024-02-21T02:01:29;10.50;99.90
19088;DHT22;9676;50.916;13.352;2024-02-21T02:04:19;10.50;99.90
19088;DHT22;9676;50.916;13.352;2024-02-21T02:07:09;10.50;99.90
19088;DHT22;9676;50.916;13.352;2024-02-21T02:09:58;10.50;99.90
19088;DHT22;9676;50.916;13.352;2024-02-21T02:12:48;10.50;99.90
19088;DHT22;9676;50.916;13.352;2024-02-21T02:15:38;10.50;99.90
19088;DHT22;9676;50.916;13.352;2024-02-21T02:18:29;10.50;99.90
19088;DHT22;9676;50.916;13.352;2024-02-21T02:21:25;10.50;99.90
19088;DHT22;9676;50.916;13.352;2024-02-21T02:24:20;10.50;99.90
19088;DHT22;9676;50.916;13.352;2024-02-21T02:27:09;10.60;99.90
19088;DHT22;9676;50.916;13.352;2024-02-21T02:29:58;10.60;99.90
19088;DHT22;9676;50.916;13.352;2024-02-21T02:32:48;10.60;99.90
19088;DHT22;9676;50.916;13.352;2024-02-21T02:35:37;10.60;99.90
19088;DHT22;9676;50.916;13.352;2024-02-21T02:38:27;10.60;99.90
19088;DHT22;9676;50.916;13.352;2024-02-21T02:41:17;10.60;99.90
19088;DHT22;9676;50.916;13.352;2024-02-21T02:44:07;10.60;99.90
19088;DHT22;9676;50.916;13.352;2024-02-21T02:46:56;10.60;99.90
19088;DHT22;9676;50.916;13.352;2024-02-21T02:49:45;10.60;99.90
19088;DHT22;9676;50.916;13.352;2024-02-21T02:52:38;10.60;99.90
19088;DHT22;9676;50.916;13.352;2024-02-21T02:55:28;10.60;99.90
19088;DHT22;9676;50.916;13.352;2024-02-21T02:58:21;10.60;99.90
19088;DHT22;9676;50.916;13.352;2024-02-21T03:01:12;10.60;99.90
19088;DHT22;9676;50.916;13.352;2024-02-21T03:04:02;10.60;99.90
19088;DHT22;9676;50.916;13.352;2024-02-21T03:06:51;10.60;99.90
19088;DHT22;9676;50.916;13.352;2024-02-21T03:09:41;10.60;99.90
19088;DHT22;9676;50.916;13.352;2024-02-21T03:12:31;10.60;99.90
19088;DHT22;9676;50.916;13.352;2024-02-21T03:15:21;10.60;99.90
19088;DHT22;9676;50.916;13.352;2024-02-21T03:18:11;10.70;99.90
19088;DHT22;9676;50.916;13.352;2024-02-21T03:21:00;10.70;99.90
19088;DHT22;9676;50.916;13.352;2024-02-21T03:23:50;10.70;99.90
19088;DHT22;9676;50.916;13.352;2024-02-21T03:26:39;10.70;99.90
19088;DHT22;9676;50.916;13.352;2024-02-21T03:29:28;10.70;99.90
19088;DHT22;9676;50.916;13.352;2024-02-21T03:32:19;10.70;99.90
19088;DHT22;9676;50.916;13.352;2024-02-21T03:35:08;10.70;99.90
19088;DHT22;9676;50.916;13.352;2024-02-21T03:37:58;10.70;99.90
19088;DHT22;9676;50.916;13.352;2024-02-21T03:40:48;10.80;99.90
19088;DHT22;9676;50.916;13.352;2024-02-21T03:43:37;10.80;99.90
19088;DHT22;9676;50.916;13.352;2024-02-21T03:46:27;10.80;99.90
19088;DHT22;9676;50.916;13.352;2024-02-21T03:49:18;10.70;99.90
19088;DHT22;9676;50.916;13.352;2024-02-21T03:52:08;10.80;99.90
19088;DHT22;9676;50.916;13.352;2024-02-21T03:54:58;10.80;99.90
19088;DHT22;9676;50.916;13.352;2024-02-21T03:57:47;10.70;99.90
19088;DHT22;9676;50.916;13.352;2024-02-21T04:00:37;10.70;99.90
19088;DHT22;9676;50.916;13.352;2024-02-21T04:03:27;10.70;99.90
19088;DHT22;9676;50.916;13.352;2024-02-21T04:06:18;10.70;99.90
19088;DHT22;9676;50.916;13.352;2024-02-21T04:09:07;10.70;99.90
19088;DHT22;9676;50.916;13.352;2024-02-21T04:11:57;10.70;99.90
19088;DHT22;9676;50.916;13.352;2024-02-21T04:14:47;10.80;99.90
19088;DHT22;9676;50.916;13.352;2024-02-21T04:17:36;10.80;99.90
19088;DHT22;9676;50.916;13.352;2024-02-21T04:20:26;10.80;99.90
19088;DHT22;9676;50.916;13.352;2024-02-21T04:23:17;10.80;99.90
19088;DHT22;9676;50.916;13.352;2024-02-21T04:26:07;10.80;99.90
19088;DHT22;9676;50.916;13.352;2024-02-21T04:28:56;10.80;99.90
19088;DHT22;9676;50.916;13.352;2024-02-21T04:31:46;10.80;99.90
19088;DHT22;9676;50.916;13.352;2024-02-21T04:34:35;10.80;99.90
19088;DHT22;9676;50.916;13.352;2024-02-21T04:37:25;10.80;99.90
19088;DHT22;9676;50.916;13.352;2024-02-21T04:40:16;10.80;99.90
19088;DHT22;9676;50.916;13.352;2024-02-21T04:43:05;10.80;99.90
19088;DHT22;9676;50.916;13.352;2024-02-21T04:45:55;10.80;99.90
19088;DHT22;9676;50.916;13.352;2024-02-21T04:48:44;10.80;99.90
19088;DHT22;9676;50.916;13.352;2024-02-21T04:51:33;10.80;99.90
19088;DHT22;9676;50.916;13.352;2024-02-21T04:54:24;10.80;99.90
19088;DHT22;9676;50.916;13.352;2024-02-21T04:57:15;10.80;99.90
19088;DHT22;9676;50.916;13.352;2024-02-21T05:00:06;10.80;99.90
19088;DHT22;9676;50.916;13.352;2024-02-21T05:02:56;10.80;99.90
19088;DHT22;9676;50.916;13.352;2024-02-21T05:05:46;10.80;99.90
19088;DHT22;9676;50.916;13.352;2024-02-21T05:08:35;10.80;99.90
19088;DHT22;9676;50.916;13.352;2024-02-21T05:11:25;10.80;99.90
19088;DHT22;9676;50.916;13.352;2024-02-21T05:14:16;10.80;99.90
19088;DHT22;9676;50.916;13.352;2024-02-21T05:17:05;10.80;99.90
19088;DHT22;9676;50.916;13.352;2024-02-21T05:19:55;10.80;99.90
19088;DHT22;9676;50.916;13.352;2024-02-21T05:22:44;10.80;99.90
19088;DHT22;9676;50.916;13.352;2024-02-21T05:25:34;10.80;99.90
19088;DHT22;9676;50.916;13.352;2024-02-21T05:28:23;10.80;99.90
19088;DHT22;9676;50.916;13.352;2024-02-21T05:31:14;10.80;99.90
19088;DHT22;9676;50.916;13.352;2024-02-21T05:34:04;10.80;99.90
19088;DHT22;9676;50.916;13.352;2024-02-21T05:36:53;10.80;99.90
19088;DHT22;9676;50.916;13.352;2024-02-21T05:39:43;10.80;99.90
19088;DHT22;9676;50.916;13.352;2024-02-21T05:42:33;10.80;99.90
19088;DHT22;9676;50.916;13.352;2024-02-21T05:45:22;10.80;99.90
19088;DHT22;9676;50.916;13.352;2024-02-21T05:48:13;10.80;99.90
19088;DHT22;9676;50.916;13.352;2024-02-21T05:51:03;10.80;99.90
19088;DHT22;9676;50.916;13.352;2024-02-21T05:53:53;10.80;99.90
19088;DHT22;9676;50.916;13.352;2024-02-21T05:56:44;10.80;99.90
19088;DHT22;9676;50.916;13.352;2024-02-21T05:59:34;10.80;99.90
19088;DHT22;9676;50.916;13.352;2024-02-21T06:02:27;10.80;99.90
19088;DHT22;9676;50.916;13.352;2024-02-21T06:05:19;10.80;99.90
19088;DHT22;9676;50.916;13.352;2024-02-21T06:08:10;10.80;99.90
19088;DHT22;9676;50.916;13.352;2024-02-21T06:11:00;10.80;99.90
19088;DHT22;9676;50.916;13.352;2024-02-21T06:13:50;10.70;99.90
19088;DHT22;9676;50.916;13.352;2024-02-21T06:16:40;10.70;99.90
19088;DHT22;9676;50.916;13.352;2024-02-21T06:19:29;10.70;99.90
19088;DHT22;9676;50.916;13.352;2024-02-21T06:22:20;10.60;99.90
19088;DHT22;9676;50.916;13.352;2024-02-21T06:25:09;10.60;99.90
19088;DHT22;9676;50.916;13.352;2024-02-21T06:27:59;10.50;99.90
19088;DHT22;9676;50.916;13.352;2024-02-21T06:30:48;10.50;99.90
19088;DHT22;9676;50.916;13.352;2024-02-21T06:33:37;10.50;99.90
19088;DHT22;9676;50.916;13.352;2024-02-21T06:36:27;10.40;99.90
19088;DHT22;9676;50.916;13.352;2024-02-21T06:39:18;10.40;99.90
19088;DHT22;9676;50.916;13.352;2024-02-21T06:42:07;10.40;99.90
19088;DHT22;9676;50.916;13.352;2024-02-21T06:44:56;10.40;99.90
19088;DHT22;9676;50.916;13.352;2024-02-21T06:47:46;10.50;99.90
19088;DHT22;9676;50.916;13.352;2024-02-21T06:50:35;10.50;99.90
19088;DHT22;9676;50.916;13.352;2024-02-21T06:53:25;10.50;99.90
19088;DHT22;9676;50.916;13.352;2024-02-21T06:56:15;10.50;99.90
19088;DHT22;9676;50.916;13.352;2024-02-21T06:59:05;10.60;99.90
19088;DHT22;9676;50.916;13.352;2024-02-21T07:01:54;10.60;99.90
19088;DHT22;9676;50.916;13.352;2024-02-21T07:04:44;10.60;99.90
19088;DHT22;9676;50.916;13.352;2024-02-21T07:07:34;10.60;99.90
19088;DHT22;9676;50.916;13.352;2024-02-21T07:10:24;10.70;99.90
19088;DHT22;9676;50.916;13.352;2024-02-21T07:13:15;10.70;99.90
19088;DHT22;9676;50.916;13.352;2024-02-21T07:16:06;10.70;99.90
19088;DHT22;9676;50.916;13.352;2024-02-21T07:18:56;10.80;99.90
19088;DHT22;9676;50.916;13.352;2024-02-21T07:21:46;10.80;99.90
19088;DHT22;9676;50.916;13.352;2024-02-21T07:24:35;10.80;99.90
19088;DHT22;9676;50.916;13.352;2024-02-21T07:27:25;10.90;99.90
19088;DHT22;9676;50.916;13.352;2024-02-21T07:30:20;10.90;99.90
19088;DHT22;9676;50.916;13.352;2024-02-21T07:33:09;11.00;99.90
19088;DHT22;9676;50.916;13.352;2024-02-21T07:35:58;11.10;99.90
19088;DHT22;9676;50.916;13.352;2024-02-21T07:38:48;11.30;99.90
19088;DHT22;9676;50.916;13.352;2024-02-21T07:41:38;11.40;99.90
19088;DHT22;9676;50.916;13.352;2024-02-21T07:44:29;11.60;99.90
19088;DHT22;9676;50.916;13.352;2024-02-21T07:47:20;11.80;99.90
19088;DHT22;9676;50.916;13.352;2024-02-21T07:50:10;12.00;99.90
19088;DHT22;9676;50.916;13.352;2024-02-21T07:53:00;12.20;99.90
19088;DHT22;9676;50.916;13.352;2024-02-21T07:55:50;12.30;99.90
19088;DHT22;9676;50.916;13.352;2024-02-21T07:58:40;12.40;99.90
19088;DHT22;9676;50.916;13.352;2024-02-21T08:01:29;12.40;99.90
19088;DHT22;9676;50.916;13.352;2024-02-21T08:04:20;12.40;99.90
19088;DHT22;9676;50.916;13.352;2024-02-21T08:07:10;12.50;99.90
19088;DHT22;9676;50.916;13.352;2024-02-21T08:09:59;12.50;99.90
19088;DHT22;9676;50.916;13.352;2024-02-21T08:12:48;12.50;99.90
19088;DHT22;9676;50.916;13.352;2024-02-21T08:15:38;12.40;99.90
19088;DHT22;9676;50.916;13.352;2024-02-21T08:18:29;12.50;99.90
19088;DHT22;9676;50.916;13.352;2024-02-21T08:21:20;12.50;99.90
19088;DHT22;9676;50.916;13.352;2024-02-21T08:24:10;12.50;99.90
19088;DHT22;9676;50.916;13.352;2024-02-21T08:26:59;12.60;99.90
19088;DHT22;9676;50.916;13.352;2024-02-21T08:29:49;12.70;99.90
19088;DHT22;9676;50.916;13.352;2024-02-21T08:32:38;12.90;99.90
19088;DHT22;9676;50.916;13.352;2024-02-21T08:35:28;13.10;99.90
19088;DHT22;9676;50.916;13.352;2024-02-21T08:38:19;13.30;99.90
19088;DHT22;9676;50.916;13.352;2024-02-21T08:41:08;13.60;99.90
19088;DHT22;9676;50.916;13.352;2024-02-21T08:43:58;14.00;99.90
19088;DHT22;9676;50.916;13.352;2024-02-21T08:46:47;14.50;99.90
19088;DHT22;9676;50.916;13.352;2024-02-21T08:49:37;15.00;99.90
19088;DHT22;9676;50.916;13.352;2024-02-21T08:52:27;15.50;99.90
19088;DHT22;9676;50.916;13.352;2024-02-21T08:55:18;15.70;99.90
19088;DHT22;9676;50.916;13.352;2024-02-21T08:58:07;16.00;99.90
19088;DHT22;9676;50.916;13.352;2024-02-21T09:00:56;16.00;99.90
19088;DHT22;9676;50.916;13.352;2024-02-21T09:03:46;16.00;99.90
19088;DHT22;9676;50.916;13.352;2024-02-21T09:06:35;16.00;99.90
19088;DHT22;9676;50.916;13.352;2024-02-21T09:09:27;15.90;99.90
19088;DHT22;9676;50.916;13.352;2024-02-21T09:12:18;15.80;99.90
19088;DHT22;9676;50.916;13.352;2024-02-21T09:15:08;15.70;99.90
19088;DHT22;9676;50.916;13.352;2024-02-21T09:17:58;15.60;99.90
19088;DHT22;9676;50.916;13.352;2024-02-21T09:20:48;15.50;99.90
19088;DHT22;9676;50.916;13.352;2024-02-21T09:23:37;15.40;99.90
19088;DHT22;9676;50.916;13.352;2024-02-21T09:26:26;15.40;99.90
19088;DHT22;9676;50.916;13.352;2024-02-21T09:29:17;15.40;99.90
19088;DHT22;9676;50.916;13.352;2024-02-21T09:32:11;15.40;99.90
19088;DHT22;9676;50.916;13.352;2024-02-21T09:35:01;15.40;99.90
19088;DHT22;9676;50.916;13.352;2024-02-21T09:37:53;15.40;99.90
19088;DHT22;9676;50.916;13.352;2024-02-21T09:40:42;15.40;99.90
19088;DHT22;9676;50.916;13.352;2024-02-21T09:43:33;15.50;99.90
19088;DHT22;9676;50.916;13.352;2024-02-21T09:46:37;15.60;99.90
19088;DHT22;9676;50.916;13.352;2024-02-21T09:49:32;15.70;99.90
19088;DHT22;9676;50.916;13.352;2024-02-21T09:52:23;15.70;99.90
19088;DHT22;9676;50.916;13.352;2024-02-21T09:55:14;15.70;99.90
19088;DHT22;9676;50.916;13.352;2024-02-21T09:58:04;15.60;99.90
19088;DHT22;9676;50.916;13.352;2024-02-21T10:00:54;15.50;99.90
19088;DHT22;9676;50.916;13.352;2024-02-21T10:03:46;15.40;99.90
19088;DHT22;9676;50.916;13.352;2024-02-21T10:06:36;15.40;99.90
19088;DHT22;9676;50.916;13.352;2024-02-21T10:09:27;15.30;99.90
19088;DHT22;9676;50.916;13.352;2024-02-21T10:12:18;15.10;99.90
19088;DHT22;9676;50.916;13.352;2024-02-21T10:15:08;15.00;99.90
19088;DHT22;9676;50.916;13.352;2024-02-21T10:17:59;14.90;99.90
19088;DHT22;9676;50.916;13.352;2024-02-21T10:21:01;14.90;99.90
19088;DHT22;9676;50.916;13.352;2024-02-21T10:23:52;14.80;99.90
19088;DHT22;9676;50.916;13.352;2024-02-21T10:26:42;14.70;99.90
19088;DHT22;9676;50.916;13.352;2024-02-21T10:29:31;14.60;99.90
19088;DHT22;9676;50.916;13.352;2024-02-21T10:32:21;14.50;99.90
19088;DHT22;9676;50.916;13.352;2024-02-21T10:35:11;14.50;99.90
19088;DHT22;9676;50.916;13.352;2024-02-21T10:38:03;14.30;99.90
19088;DHT22;9676;50.916;13.352;2024-02-21T10:40:54;14.30;99.90
19088;DHT22;9676;50.916;13.352;2024-02-21T10:43:49;14.20;99.90
19088;DHT22;9676;50.916;13.352;2024-02-21T10:46:40;14.10;99.90
19088;DHT22;9676;50.916;13.352;2024-02-21T10:49:30;14.10;99.90
19088;DHT22;9676;50.916;13.352;2024-02-21T10:52:27;14.00;99.90
19088;DHT22;9676;50.916;13.352;2024-02-21T10:55:30;14.00;99.90
19088;DHT22;9676;50.916;13.352;2024-02-21T10:58:21;14.00;99.90
19088;DHT22;9676;50.916;13.352;2024-02-21T11:01:11;14.00;99.90
19088;DHT22;9676;50.916;13.352;2024-02-21T11:04:05;14.00;99.90
19088;DHT22;9676;50.916;13.352;2024-02-21T11:06:55;14.00;99.90
19088;DHT22;9676;50.916;13.352;2024-02-21T11:09:51;14.00;99.90
19088;DHT22;9676;50.916;13.352;2024-02-21T11:12:44;14.10;99.90
19088;DHT22;9676;50.916;13.352;2024-02-21T11:15:33;14.10;99.90
19088;DHT22;9676;50.916;13.352;2024-02-21T11:18:23;14.10;99.90
19088;DHT22;9676;50.916;13.352;2024-02-21T11:21:13;14.10;99.90
19088;DHT22;9676;50.916;13.352;2024-02-21T11:24:02;14.20;99.90
19088;DHT22;9676;50.916;13.352;2024-02-21T11:26:52;14.30;99.90
19088;DHT22;9676;50.916;13.352;2024-02-21T11:29:44;14.50;99.90
19088;DHT22;9676;50.916;13.352;2024-02-21T11:32:34;14.70;99.90
19088;DHT22;9676;50.916;13.352;2024-02-21T11:35:25;15.10;99.90
19088;DHT22;9676;50.916;13.352;2024-02-21T11:38:23;15.70;99.90
19088;DHT22;9676;50.916;13.352;2024-02-21T11:41:13;16.50;99.90
19088;DHT22;9676;50.916;13.352;2024-02-21T11:44:03;17.30;99.90
19088;DHT22;9676;50.916;13.352;2024-02-21T11:46:54;18.00;99.90
19088;DHT22;9676;50.916;13.352;2024-02-21T11:49:45;18.50;99.90
19088;DHT22;9676;50.916;13.352;2024-02-21T11:52:37;18.90;99.90
19088;DHT22;9676;50.916;13.352;2024-02-21T11:55:28;19.00;99.90
19088;DHT22;9676;50.916;13.352;2024-02-21T11:58:18;19.00;99.90
19088;DHT22;9676;50.916;13.352;2024-02-21T12:01:07;18.90;99.90
19088;DHT22;9676;50.916;13.352;2024-02-21T12:03:58;18.70;99.90
19088;DHT22;9676;50.916;13.352;2024-02-21T12:06:48;18.50;99.90
19088;DHT22;9676;50.916;13.352;2024-02-21T12:09:37;18.30;99.90
19088;DHT22;9676;50.916;13.352;2024-02-21T12:12:27;18.10;99.90
19088;DHT22;9676;50.916;13.352;2024-02-21T12:15:18;17.90;99.90
19088;DHT22;9676;50.916;13.352;2024-02-21T12:18:08;17.70;99.90
19088;DHT22;9676;50.916;13.352;2024-02-21T12:21:00;17.50;99.90
19088;DHT22;9676;50.916;13.352;2024-02-21T12:23:50;17.30;99.90
19088;DHT22;9676;50.916;13.352;2024-02-21T12:26:39;17.10;99.90
19088;DHT22;9676;50.916;13.352;2024-02-21T12:29:29;16.90;99.90
19088;DHT22;9676;50.916;13.352;2024-02-21T12:32:18;16.70;99.90
19088;DHT22;9676;50.916;13.352;2024-02-21T12:35:08;16.60;99.90
19088;DHT22;9676;50.916;13.352;2024-02-21T12:37:59;16.40;99.90
19088;DHT22;9676;50.916;13.352;2024-02-21T12:40:49;16.30;99.90
19088;DHT22;9676;50.916;13.352;2024-02-21T12:43:39;16.20;99.90
19088;DHT22;9676;50.916;13.352;2024-02-21T12:46:28;16.10;99.90
19088;DHT22;9676;50.916;13.352;2024-02-21T12:49:18;16.10;99.90
19088;DHT22;9676;50.916;13.352;2024-02-21T12:52:07;16.00;99.90
19088;DHT22;9676;50.916;13.352;2024-02-21T12:54:58;16.00;99.90
19088;DHT22;9676;50.916;13.352;2024-02-21T12:57:48;16.00;99.90
19088;DHT22;9676;50.916;13.352;2024-02-21T13:00:37;15.90;99.90
19088;DHT22;9676;50.916;13.352;2024-02-21T13:03:26;15.90;99.90
19088;DHT22;9676;50.916;13.352;2024-02-21T13:06:20;15.80;99.90
19088;DHT22;9676;50.916;13.352;2024-02-21T13:09:10;15.80;99.90
19088;DHT22;9676;50.916;13.352;2024-02-21T13:12:01;15.80;99.90
19088;DHT22;9676;50.916;13.352;2024-02-21T13:14:51;15.70;99.90
19088;DHT22;9676;50.916;13.352;2024-02-21T13:17:40;15.70;99.90
19088;DHT22;9676;50.916;13.352;2024-02-21T13:20:30;15.60;99.90
19088;DHT22;9676;50.916;13.352;2024-02-21T13:23:20;15.60;99.90
19088;DHT22;9676;50.916;13.352;2024-02-21T13:26:10;15.60;99.90
19088;DHT22;9676;50.916;13.352;2024-02-21T13:29:01;15.50;99.90
19088;DHT22;9676;50.916;13.352;2024-02-21T13:31:51;15.50;99.90
19088;DHT22;9676;50.916;13.352;2024-02-21T13:34:41;15.50;99.90
19088;DHT22;9676;50.916;13.352;2024-02-21T13:37:32;15.40;99.90
19088;DHT22;9676;50.916;13.352;2024-02-21T13:40:21;15.40;99.90
19088;DHT22;9676;50.916;13.352;2024-02-21T13:43:11;15.40;99.90
19088;DHT22;9676;50.916;13.352;2024-02-21T13:46:02;15.30;99.90
19088;DHT22;9676;50.916;13.352;2024-02-21T13:49:05;15.30;99.90
19088;DHT22;9676;50.916;13.352;2024-02-21T13:51:55;15.30;99.90
19088;DHT22;9676;50.916;13.352;2024-02-21T13:54:45;15.30;99.90
19088;DHT22;9676;50.916;13.352;2024-02-21T13:57:34;15.30;99.90
19088;DHT22;9676;50.916;13.352;2024-02-21T14:00:24;15.30;99.90
19088;DHT22;9676;50.916;13.352;2024-02-21T14:03:16;15.30;99.90
19088;DHT22;9676;50.916;13.352;2024-02-21T14:06:07;15.40;99.90
19088;DHT22;9676;50.916;13.352;2024-02-21T14:08:56;15.40;99.90
19088;DHT22;9676;50.916;13.352;2024-02-21T14:11:45;15.40;99.90
19088;DHT22;9676;50.916;13.352;2024-02-21T14:14:35;15.40;99.90
19088;DHT22;9676;50.916;13.352;2024-02-21T14:17:27;15.40;99.90
19088;DHT22;9676;50.916;13.352;2024-02-21T14:20:18;15.40;99.90
19088;DHT22;9676;50.916;13.352;2024-02-21T14:23:07;15.50;99.90
19088;DHT22;9676;50.916;13.352;2024-02-21T14:25:57;15.50;99.90
19088;DHT22;9676;50.916;13.352;2024-02-21T14:28:46;15.50;99.90
19088;DHT22;9676;50.916;13.352;2024-02-21T14:31:36;15.50;99.90
19088;DHT22;9676;50.916;13.352;2024-02-21T14:34:25;15.50;99.90
19088;DHT22;9676;50.916;13.352;2024-02-21T14:37:16;15.50;99.90
19088;DHT22;9676;50.916;13.352;2024-02-21T14:40:07;15.50;99.90
19088;DHT22;9676;50.916;13.352;2024-02-21T14:42:57;15.50;99.90
19088;DHT22;9676;50.916;13.352;2024-02-21T14:45:46;15.50;99.90
19088;DHT22;9676;50.916;13.352;2024-02-21T14:48:36;15.50;99.90
19088;DHT22;9676;50.916;13.352;2024-02-21T14:51:25;15.50;99.90
19088;DHT22;9676;50.916;13.352;2024-02-21T14:54:16;15.50;99.90
19088;DHT22;9676;50.916;13.352;2024-02-21T14:57:07;15.50;99.90
19088;DHT22;9676;50.916;13.352;2024-02-21T14:59:56;15.50;99.90
19088;DHT22;9676;50.916;13.352;2024-02-21T15:02:48;15.40;99.90
19088;DHT22;9676;50.916;13.352;2024-02-21T15:05:37;15.40;99.90
19088;DHT22;9676;50.916;13.352;2024-02-21T15:08:28;15.40;99.90
19088;DHT22;9676;50.916;13.352;2024-02-21T15:11:18;15.40;99.90
19088;DHT22;9676;50.916;13.352;2024-02-21T15:14:10;15.30;99.90
19088;DHT22;9676;50.916;13.352;2024-02-21T15:17:00;15.30;99.90
19088;DHT22;9676;50.916;13.352;2024-02-21T15:19:49;15.30;99.90
19088;DHT22;9676;50.916;13.352;2024-02-21T15:22:39;15.20;99.90
19088;DHT22;9676;50.916;13.352;2024-02-21T15:25:28;15.20;99.90
19088;DHT22;9676;50.916;13.352;2024-02-21T15:28:20;15.10;99.90
19088;DHT22;9676;50.916;13.352;2024-02-21T15:31:09;15.10;99.90
19088;DHT22;9676;50.916;13.352;2024-02-21T15:34:09;15.00;99.90
19088;DHT22;9676;50.916;13.352;2024-02-21T15:36:59;14.90;99.90
19088;DHT22;9676;50.916;13.352;2024-02-21T15:39:49;14.80;99.90
19088;DHT22;9676;50.916;13.352;2024-02-21T15:42:39;14.70;99.90
19088;DHT22;9676;50.916;13.352;2024-02-21T15:45:30;14.60;99.90
19088;DHT22;9676;50.916;13.352;2024-02-21T15:48:20;14.60;99.90
19088;DHT22;9676;50.916;13.352;2024-02-21T15:51:13;14.50;99.90
19088;DHT22;9676;50.916;13.352;2024-02-21T15:54:02;14.40;99.90
19088;DHT22;9676;50.916;13.352;2024-02-21T15:56:52;14.30;99.90
19088;DHT22;9676;50.916;13.352;2024-02-21T15:59:42;14.20;99.90
19088;DHT22;9676;50.916;13.352;2024-02-21T16:02:33;14.10;99.90
19088;DHT22;9676;50.916;13.352;2024-02-21T16:05:22;14.10;99.90
19088;DHT22;9676;50.916;13.352;2024-02-21T16:08:12;14.00;99.90
19088;DHT22;9676;50.916;13.352;2024-02-21T16:11:04;14.00;99.90
19088;DHT22;9676;50.916;13.352;2024-02-21T16:13:53;13.90;99.90
19088;DHT22;9676;50.916;13.352;2024-02-21T16:16:43;13.80;99.90
19088;DHT22;9676;50.916;13.352;2024-02-21T16:19:34;13.80;99.90
19088;DHT22;9676;50.916;13.352;2024-02-21T16:22:24;13.70;99.90
19088;DHT22;9676;50.916;13.352;2024-02-21T16:25:13;13.60;99.90
19088;DHT22;9676;50.916;13.352;2024-02-21T16:28:03;13.50;99.90
19088;DHT22;9676;50.916;13.352;2024-02-21T16:30:55;13.50;99.90
19088;DHT22;9676;50.916;13.352;2024-02-21T16:33:46;13.40;99.90
19088;DHT22;9676;50.916;13.352;2024-02-21T16:36:37;13.30;99.90
19088;DHT22;9676;50.916;13.352;2024-02-21T16:39:27;13.30;99.90
19088;DHT22;9676;50.916;13.352;2024-02-21T16:42:16;13.20;99.90
19088;DHT22;9676;50.916;13.352;2024-02-21T16:45:06;13.20;99.90
19088;DHT22;9676;50.916;13.352;2024-02-21T16:47:57;13.10;99.90
19088;DHT22;9676;50.916;13.352;2024-02-21T16:50:46;13.10;99.90
19088;DHT22;9676;50.916;13.352;2024-02-21T16:53:48;13.00;99.90
19088;DHT22;9676;50.916;13.352;2024-02-21T16:56:37;13.00;99.90
19088;DHT22;9676;50.916;13.352;2024-02-21T16:59:27;12.90;99.90
19088;DHT22;9676;50.916;13.352;2024-02-21T17:02:16;12.90;99.90
19088;DHT22;9676;50.916;13.352;2024-02-21T17:05:06;12.80;99.90
19088;DHT22;9676;50.916;13.352;2024-02-21T17:07:56;12.80;99.90
19088;DHT22;9676;50.916;13.352;2024-02-21T17:10:47;12.70;99.90
19088;DHT22;9676;50.916;13.352;2024-02-21T17:13:36;12.70;99.90
19088;DHT22;9676;50.916;13.352;2024-02-21T17:16:26;12.60;99.90
19088;DHT22;9676;50.916;13.352;2024-02-21T17:19:15;12.60;99.90
19088;DHT22;9676;50.916;13.352;2024-02-21T17:22:05;12.50;99.90
19088;DHT22;9676;50.916;13.352;2024-02-21T17:24:54;12.40;99.90
19088;DHT22;9676;50.916;13.352;2024-02-21T17:27:45;12.40;99.90
19088;DHT22;9676;50.916;13.352;2024-02-21T17:30:36;12.40;99.90
19088;DHT22;9676;50.916;13.352;2024-02-21T17:33:26;12.40;99.90
19088;DHT22;9676;50.916;13.352;2024-02-21T17:36:16;12.40;99.90
19088;DHT22;9676;50.916;13.352;2024-02-21T17:39:05;12.30;99.90
19088;DHT22;9676;50.916;13.352;2024-02-21T17:41:57;12.30;99.90
19088;DHT22;9676;50.916;13.352;2024-02-21T17:44:48;12.30;99.90
19088;DHT22;9676;50.916;13.352;2024-02-21T17:47:37;12.20;99.90
19088;DHT22;9676;50.916;13.352;2024-02-21T17:50:26;12.20;99.90
19088;DHT22;9676;50.916;13.352;2024-02-21T17:53:16;12.20;99.90
19088;DHT22;9676;50.916;13.352;2024-02-21T17:56:06;12.10;99.90